sensor_id;sensor_type;location;lat;lon;timestamp;pressure;altitude;pressure_sealevel;temperature;humidity
58622;BME280;44389;51.578;5.456;2023-04-25T00:00:37;100978.06;;;4.77;100.00
58622;BME280;44389;51.578;5.456;2023-04-25T00:03:03;100997.19;;;4.69;100.00
58622;BME280;44389;51.578;5.456;2023-04-25T00:05:30;101000.97;;;4.60;100.00
58622;BME280;44389;51.578;5.456;2023-04-25T00:07:57;100998.25;;;4.57;100.00
58622;BME280;44389;51.578;5.456;2023-04-25T00:10:22;100994.38;;;4.49;100.00
58622;BME280;44389;51.578;5.456;2023-04-25T00:12:47;100993.25;;;4.44;100.00
58622;BME280;44389;51.578;5.456;2023-04-25T00:15:13;100997.31;;;4.40;100.00
58622;BME280;44389;51.578;5.456;2023-04-25T00:17:39;101002.31;;;4.39;100.00
58622;BME280;44389;51.578;5.456;2023-04-25T00:20:05;101005.41;;;4.33;100.00
58622;BME280;44389;51.578;5.456;2023-04-25T00:22:32;101007.66;;;4.28;100.00
58622;BME280;44389;51.578;5.456;2023-04-25T00:24:58;101014.28;;;4.25;100.00
58622;BME280;44389;51.578;5.456;2023-04-25T00:27:25;101013.16;;;4.20;100.00
58622;BME280;44389;51.578;5.456;2023-04-25T00:29:51;101015.59;;;4.18;100.00
58622;BME280;44389;51.578;5.456;2023-04-25T00:32:16;101018.94;;;4.17;100.00
58622;BME280;44389;51.578;5.456;2023-04-25T00:34:41;101009.16;;;4.10;100.00
58622;BME280;44389;51.578;5.456;2023-04-25T00:37:07;101011.34;;;4.04;100.00
58622;BME280;44389;51.578;5.456;2023-04-25T00:39:32;101006.88;;;4.00;100.00
58622;BME280;44389;51.578;5.456;2023-04-25T00:41:57;101004.31;;;4.00;100.00
58622;BME280;44389;51.578;5.456;2023-04-25T00:44:23;101006.59;;;3.95;100.00
58622;BME280;44389;51.578;5.456;2023-04-25T00:46:49;101004.94;;;3.95;100.00
58622;BME280;44389;51.578;5.456;2023-04-25T00:49:15;101008.44;;;3.98;100.00
58622;BME280;44389;51.578;5.456;2023-04-25T00:51:42;101003.16;;;3.94;100.00
58622;BME280;44389;51.578;5.456;2023-04-25T00:54:09;101013.44;;;3.96;100.00
58622;BME280;44389;51.578;5.456;2023-04-25T00:56:35;101008.88;;;3.90;100.00
58622;BME280;44389;51.578;5.456;2023-04-25T00:59:00;101011.94;;;3.85;100.00
58622;BME280;44389;51.578;5.456;2023-04-25T01:01:26;101008.34;;;3.81;100.00
58622;BME280;44389;51.578;5.456;2023-04-25T01:03:53;101013.25;;;3.78;100.00
58622;BME280;44389;51.578;5.456;2023-04-25T01:06:19;101009.63;;;3.74;100.00
58622;BME280;44389;51.578;5.456;2023-04-25T01:08:44;101006.38;;;3.77;100.00
58622;BME280;44389;51.578;5.456;2023-04-25T01:11:10;101008.84;;;3.75;100.00
58622;BME280;44389;51.578;5.456;2023-04-25T01:13:35;101006.22;;;3.74;100.00
58622;BME280;44389;51.578;5.456;2023-04-25T01:16:01;101014.84;;;3.76;100.00
58622;BME280;44389;51.578;5.456;2023-04-25T01:18:27;101005.06;;;3.69;100.00
58622;BME280;44389;51.578;5.456;2023-04-25T01:20:52;101020.34;;;3.69;100.00
58622;BME280;44389;51.578;5.456;2023-04-25T01:23:22;101020.34;;;3.69;100.00
58622;BME280;44389;51.578;5.456;2023-04-25T01:25:50;101022.28;;;3.73;100.00
58622;BME280;44389;51.578;5.456;2023-04-25T01:28:16;101020.97;;;3.79;100.00
58622;BME280;44389;51.578;5.456;2023-04-25T01:30:42;101024.69;;;3.85;100.00
58622;BME280;44389;51.578;5.456;2023-04-25T01:33:08;101030.16;;;3.91;100.00
58622;BME280;44389;51.578;5.456;2023-04-25T01:35:34;101026.13;;;3.94;100.00
58622;BME280;44389;51.578;5.456;2023-04-25T01:37:59;101027.19;;;3.98;100.00
58622;BME280;44389;51.578;5.456;2023-04-25T01:40:26;101020.50;;;4.00;100.00
58622;BME280;44389;51.578;5.456;2023-04-25T01:42:52;101030.81;;;4.02;100.00
58622;BME280;44389;51.578;5.456;2023-04-25T01:45:17;101028.44;;;4.05;100.00
58622;BME280;44389;51.578;5.456;2023-04-25T01:47:44;101024.19;;;4.05;100.00
58622;BME280;44389;51.578;5.456;2023-04-25T01:50:13;101031.06;;;4.06;100.00
58622;BME280;44389;51.578;5.456;2023-04-25T01:52:39;101026.84;;;4.07;100.00
58622;BME280;44389;51.578;5.456;2023-04-25T01:55:05;101033.69;;;4.08;100.00
58622;BME280;44389;51.578;5.456;2023-04-25T01:57:31;101029.41;;;4.07;100.00
58622;BME280;44389;51.578;5.456;2023-04-25T02:00:01;101033.53;;;4.05;100.00
58622;BME280;44389;51.578;5.456;2023-04-25T02:02:27;101032.66;;;4.04;100.00
58622;BME280;44389;51.578;5.456;2023-04-25T02:04:53;101035.91;;;4.02;100.00
58622;BME280;44389;51.578;5.456;2023-04-25T02:07:20;101030.22;;;3.92;100.00
58622;BME280;44389;51.578;5.456;2023-04-25T02:09:45;101037.34;;;3.83;100.00
58622;BME280;44389;51.578;5.456;2023-04-25T02:12:10;101040.88;;;3.85;100.00
58622;BME280;44389;51.578;5.456;2023-04-25T02:14:36;101048.44;;;3.84;100.00
58622;BME280;44389;51.578;5.456;2023-04-25T02:17:02;101049.13;;;3.81;100.00
58622;BME280;44389;51.578;5.456;2023-04-25T02:19:27;101048.84;;;3.76;100.00
58622;BME280;44389;51.578;5.456;2023-04-25T02:21:52;101043.47;;;3.72;100.00
58622;BME280;44389;51.578;5.456;2023-04-25T02:24:18;101054.63;;;3.74;100.00
58622;BME280;44389;51.578;5.456;2023-04-25T02:26:43;101048.22;;;3.66;100.00
58622;BME280;44389;51.578;5.456;2023-04-25T02:29:09;101048.00;;;3.62;100.00
58622;BME280;44389;51.578;5.456;2023-04-25T02:31:35;101047.13;;;3.62;100.00
58622;BME280;44389;51.578;5.456;2023-04-25T02:34:00;101047.63;;;3.56;100.00
58622;BME280;44389;51.578;5.456;2023-04-25T02:36:25;101051.16;;;3.58;100.00
58622;BME280;44389;51.578;5.456;2023-04-25T02:38:51;101055.69;;;3.49;100.00
58622;BME280;44389;51.578;5.456;2023-04-25T02:41:17;101057.09;;;3.44;100.00
58622;BME280;44389;51.578;5.456;2023-04-25T02:43:42;101056.53;;;3.35;100.00
58622;BME280;44389;51.578;5.456;2023-04-25T02:46:07;101051.22;;;3.32;100.00
58622;BME280;44389;51.578;5.456;2023-04-25T02:48:32;101052.81;;;3.29;100.00
58622;BME280;44389;51.578;5.456;2023-04-25T02:50:58;101060.44;;;3.16;100.00
58622;BME280;44389;51.578;5.456;2023-04-25T02:53:23;101054.19;;;3.11;100.00
58622;BME280;44389;51.578;5.456;2023-04-25T02:55:48;101054.59;;;3.04;100.00
58622;BME280;44389;51.578;5.456;2023-04-25T02:58:13;101055.19;;;3.00;100.00
58622;BME280;44389;51.578;5.456;2023-04-25T03:00:40;101051.56;;;2.96;100.00
58622;BME280;44389;51.578;5.456;2023-04-25T03:03:05;101057.31;;;2.80;100.00
58622;BME280;44389;51.578;5.456;2023-04-25T03:05:31;101060.94;;;2.84;100.00
58622;BME280;44389;51.578;5.456;2023-04-25T03:07:56;101053.91;;;2.79;100.00
58622;BME280;44389;51.578;5.456;2023-04-25T03:10:21;101060.56;;;2.77;100.00
58622;BME280;44389;51.578;5.456;2023-04-25T03:12:46;101052.91;;;2.64;100.00
58622;BME280;44389;51.578;5.456;2023-04-25T03:15:12;101052.81;;;2.62;100.00
58622;BME280;44389;51.578;5.456;2023-04-25T03:17:37;101056.34;;;2.64;100.00
58622;BME280;44389;51.578;5.456;2023-04-25T03:20:02;101057.50;;;2.56;100.00
58622;BME280;44389;51.578;5.456;2023-04-25T03:22:29;101052.41;;;2.56;100.00
58622;BME280;44389;51.578;5.456;2023-04-25T03:24:54;101057.91;;;2.62;100.00
58622;BME280;44389;51.578;5.456;2023-04-25T03:27:19;101059.28;;;2.71;100.00
58622;BME280;44389;51.578;5.456;2023-04-25T03:29:45;101060.47;;;2.76;100.00
58622;BME280;44389;51.578;5.456;2023-04-25T03:32:10;101060.19;;;2.85;100.00
58622;BME280;44389;51.578;5.456;2023-04-25T03:34:35;101055.38;;;2.89;100.00
58622;BME280;44389;51.578;5.456;2023-04-25T03:37:01;101064.19;;;2.94;100.00
58622;BME280;44389;51.578;5.456;2023-04-25T03:39:26;101061.84;;;2.97;100.00
58622;BME280;44389;51.578;5.456;2023-04-25T03:41:51;101064.78;;;3.04;100.00
58622;BME280;44389;51.578;5.456;2023-04-25T03:44:17;101064.97;;;3.07;100.00
58622;BME280;44389;51.578;5.456;2023-04-25T03:46:42;101057.53;;;3.10;100.00
58622;BME280;44389;51.578;5.456;2023-04-25T03:49:08;101055.94;;;3.12;100.00
58622;BME280;44389;51.578;5.456;2023-04-25T03:51:33;101060.66;;;3.19;100.00
58622;BME280;44389;51.578;5.456;2023-04-25T03:53:58;101063.13;;;3.18;100.00
58622;BME280;44389;51.578;5.456;2023-04-25T03:56:24;101062.50;;;3.22;100.00
58622;BME280;44389;51.578;5.456;2023-04-25T03:58:49;101057.50;;;3.23;100.00
58622;BME280;44389;51.578;5.456;2023-04-25T04:01:14;101064.28;;;3.23;100.00
58622;BME280;44389;51.578;5.456;2023-04-25T04:03:40;101061.22;;;3.28;100.00
58622;BME280;44389;51.578;5.456;2023-04-25T04:06:06;101068.88;;;3.28;100.00
58622;BME280;44389;51.578;5.456;2023-04-25T04:08:32;101074.75;;;3.27;100.00
58622;BME280;44389;51.578;5.456;2023-04-25T04:10:58;101080.81;;;3.29;100.00
58622;BME280;44389;51.578;5.456;2023-04-25T04:13:25;101086.69;;;3.28;100.00
58622;BME280;44389;51.578;5.456;2023-04-25T04:15:50;101090.41;;;3.34;100.00
58622;BME280;44389;51.578;5.456;2023-04-25T04:18:16;101091.28;;;3.34;100.00
58622;BME280;44389;51.578;5.456;2023-04-25T04:20:41;101088.84;;;3.36;100.00
58622;BME280;44389;51.578;5.456;2023-04-25T04:23:06;101088.16;;;3.38;100.00
58622;BME280;44389;51.578;5.456;2023-04-25T04:25:32;101088.16;;;3.38;100.00
58622;BME280;44389;51.578;5.456;2023-04-25T04:27:57;101093.25;;;3.38;100.00
58622;BME280;44389;51.578;5.456;2023-04-25T04:30:24;101089.22;;;3.42;100.00
58622;BME280;44389;51.578;5.456;2023-04-25T04:32:51;101094.81;;;3.36;100.00
58622;BME280;44389;51.578;5.456;2023-04-25T04:35:16;101093.97;;;3.36;100.00
58622;BME280;44389;51.578;5.456;2023-04-25T04:37:42;101101.47;;;3.34;100.00
58622;BME280;44389;51.578;5.456;2023-04-25T04:40:09;101101.97;;;3.28;100.00
58622;BME280;44389;51.578;5.456;2023-04-25T04:42:34;101102.66;;;3.26;100.00
58622;BME280;44389;51.578;5.456;2023-04-25T04:45:01;101102.50;;;3.23;100.00
58622;BME280;44389;51.578;5.456;2023-04-25T04:47:27;101110.22;;;3.24;100.00
58622;BME280;44389;51.578;5.456;2023-04-25T04:49:55;101110.22;;;3.24;100.00
58622;BME280;44389;51.578;5.456;2023-04-25T04:52:21;101103.66;;;3.28;100.00
58622;BME280;44389;51.578;5.456;2023-04-25T04:54:46;101108.84;;;3.29;100.00
58622;BME280;44389;51.578;5.456;2023-04-25T04:57:11;101114.34;;;3.36;100.00
58622;BME280;44389;51.578;5.456;2023-04-25T04:59:36;101122.34;;;3.42;100.00
58622;BME280;44389;51.578;5.456;2023-04-25T05:02:02;101120.41;;;3.51;100.00
58622;BME280;44389;51.578;5.456;2023-04-25T05:04:27;101125.06;;;3.58;100.00
58622;BME280;44389;51.578;5.456;2023-04-25T05:06:52;101125.25;;;3.61;100.00
58622;BME280;44389;51.578;5.456;2023-04-25T05:09:18;101128.28;;;3.69;100.00
58622;BME280;44389;51.578;5.456;2023-04-25T05:11:44;101138.75;;;3.74;100.00
58622;BME280;44389;51.578;5.456;2023-04-25T05:14:09;101143.34;;;3.79;100.00
58622;BME280;44389;51.578;5.456;2023-04-25T05:16:35;101148.06;;;3.87;100.00
58622;BME280;44389;51.578;5.456;2023-04-25T05:19:00;101141.47;;;3.90;100.00
58622;BME280;44389;51.578;5.456;2023-04-25T05:21:25;101146.06;;;3.96;100.00
58622;BME280;44389;51.578;5.456;2023-04-25T05:23:52;101152.94;;;3.97;100.00
58622;BME280;44389;51.578;5.456;2023-04-25T05:26:17;101160.66;;;3.99;100.00
58622;BME280;44389;51.578;5.456;2023-04-25T05:28:43;101160.97;;;4.03;100.00
58622;BME280;44389;51.578;5.456;2023-04-25T05:31:11;101167.13;;;4.07;100.00
58622;BME280;44389;51.578;5.456;2023-04-25T05:33:36;101173.41;;;4.12;100.00
58622;BME280;44389;51.578;5.456;2023-04-25T05:36:02;101173.94;;;4.21;100.00
58622;BME280;44389;51.578;5.456;2023-04-25T05:38:27;101170.88;;;4.27;100.00
58622;BME280;44389;51.578;5.456;2023-04-25T05:40:52;101167.72;;;4.31;100.00
58622;BME280;44389;51.578;5.456;2023-04-25T05:43:17;101175.34;;;4.44;100.00
58622;BME280;44389;51.578;5.456;2023-04-25T05:45:43;101168.75;;;4.48;100.00
58622;BME280;44389;51.578;5.456;2023-04-25T05:48:08;101170.25;;;4.59;100.00
58622;BME280;44389;51.578;5.456;2023-04-25T05:50:33;101180.41;;;4.73;100.00
58622;BME280;44389;51.578;5.456;2023-04-25T05:52:58;101186.75;;;4.80;100.00
58622;BME280;44389;51.578;5.456;2023-04-25T05:55:24;101191.16;;;4.82;100.00
58622;BME280;44389;51.578;5.456;2023-04-25T05:57:49;101188.97;;;4.88;100.00
58622;BME280;44389;51.578;5.456;2023-04-25T06:00:15;101195.22;;;4.93;100.00
58622;BME280;44389;51.578;5.456;2023-04-25T06:02:41;101201.22;;;5.09;100.00
58622;BME280;44389;51.578;5.456;2023-04-25T06:05:07;101206.84;;;5.18;100.00
58622;BME280;44389;51.578;5.456;2023-04-25T06:07:32;101205.59;;;5.26;100.00
58622;BME280;44389;51.578;5.456;2023-04-25T06:09:58;101214.06;;;5.25;100.00
58622;BME280;44389;51.578;5.456;2023-04-25T06:12:23;101214.41;;;5.32;100.00
58622;BME280;44389;51.578;5.456;2023-04-25T06:14:48;101207.97;;;5.23;100.00
58622;BME280;44389;51.578;5.456;2023-04-25T06:17:14;101206.47;;;5.12;100.00
58622;BME280;44389;51.578;5.456;2023-04-25T06:19:39;101202.63;;;5.04;100.00
58622;BME280;44389;51.578;5.456;2023-04-25T06:22:04;101211.84;;;5.02;100.00
58622;BME280;44389;51.578;5.456;2023-04-25T06:24:30;101217.41;;;4.94;100.00
58622;BME280;44389;51.578;5.456;2023-04-25T06:26:55;101211.50;;;4.95;100.00
58622;BME280;44389;51.578;5.456;2023-04-25T06:29:22;101213.09;;;4.93;100.00
58622;BME280;44389;51.578;5.456;2023-04-25T06:31:47;101217.50;;;4.96;100.00
58622;BME280;44389;51.578;5.456;2023-04-25T06:34:12;101218.44;;;4.98;100.00
58622;BME280;44389;51.578;5.456;2023-04-25T06:36:37;101220.41;;;5.02;100.00
58622;BME280;44389;51.578;5.456;2023-04-25T06:39:03;101224.28;;;5.10;100.00
58622;BME280;44389;51.578;5.456;2023-04-25T06:41:28;101228.84;;;5.16;100.00
58622;BME280;44389;51.578;5.456;2023-04-25T06:43:53;101228.78;;;5.15;100.00
58622;BME280;44389;51.578;5.456;2023-04-25T06:46:19;101232.38;;;5.18;100.00
58622;BME280;44389;51.578;5.456;2023-04-25T06:48:44;101237.06;;;5.25;100.00
58622;BME280;44389;51.578;5.456;2023-04-25T06:51:09;101243.31;;;5.31;100.00
58622;BME280;44389;51.578;5.456;2023-04-25T06:53:35;101240.31;;;5.38;100.00
58622;BME280;44389;51.578;5.456;2023-04-25T06:56:00;101242.44;;;5.45;100.00
58622;BME280;44389;51.578;5.456;2023-04-25T06:58:26;101254.03;;;5.55;100.00
58622;BME280;44389;51.578;5.456;2023-04-25T07:00:51;101243.09;;;5.57;98.96
58622;BME280;44389;51.578;5.456;2023-04-25T07:03:16;101249.22;;;5.59;98.90
58622;BME280;44389;51.578;5.456;2023-04-25T07:05:42;101242.53;;;5.78;100.00
58622;BME280;44389;51.578;5.456;2023-04-25T07:08:07;101247.38;;;5.88;100.00
58622;BME280;44389;51.578;5.456;2023-04-25T07:10:32;101248.69;;;5.97;100.00
58622;BME280;44389;51.578;5.456;2023-04-25T07:12:57;101246.59;;;6.04;100.00
58622;BME280;44389;51.578;5.456;2023-04-25T07:15:23;101248.22;;;6.19;100.00
58622;BME280;44389;51.578;5.456;2023-04-25T07:17:48;101248.28;;;6.20;97.82
58622;BME280;44389;51.578;5.456;2023-04-25T07:20:13;101257.16;;;6.27;93.55
58622;BME280;44389;51.578;5.456;2023-04-25T07:22:39;101256.13;;;6.40;94.08
58622;BME280;44389;51.578;5.456;2023-04-25T07:25:05;101264.88;;;6.60;100.00
58622;BME280;44389;51.578;5.456;2023-04-25T07:27:30;101265.44;;;6.54;93.87
58622;BME280;44389;51.578;5.456;2023-04-25T07:29:56;101264.16;;;6.63;93.56
58622;BME280;44389;51.578;5.456;2023-04-25T07:32:22;101279.19;;;6.56;89.08
58622;BME280;44389;51.578;5.456;2023-04-25T07:34:47;101275.38;;;6.48;84.75
58622;BME280;44389;51.578;5.456;2023-04-25T07:37:13;101283.34;;;6.54;87.86
58622;BME280;44389;51.578;5.456;2023-04-25T07:39:39;101290.25;;;6.55;85.87
58622;BME280;44389;51.578;5.456;2023-04-25T07:42:04;101281.31;;;6.64;90.06
58622;BME280;44389;51.578;5.456;2023-04-25T07:44:32;101295.72;;;6.78;90.56
58622;BME280;44389;51.578;5.456;2023-04-25T07:47:03;101295.06;;;6.99;92.22
58622;BME280;44389;51.578;5.456;2023-04-25T07:49:29;101294.75;;;6.92;84.06
58622;BME280;44389;51.578;5.456;2023-04-25T07:51:54;101301.13;;;7.17;86.05
58622;BME280;44389;51.578;5.456;2023-04-25T07:54:20;101302.19;;;7.39;85.80
58622;BME280;44389;51.578;5.456;2023-04-25T07:56:45;101294.47;;;7.55;84.29
58622;BME280;44389;51.578;5.456;2023-04-25T07:59:10;101300.25;;;7.87;88.42
58622;BME280;44389;51.578;5.456;2023-04-25T08:01:36;101299.16;;;7.82;81.72
58622;BME280;44389;51.578;5.456;2023-04-25T08:04:01;101296.50;;;7.99;85.39
58622;BME280;44389;51.578;5.456;2023-04-25T08:06:26;101309.69;;;8.24;84.35
58622;BME280;44389;51.578;5.456;2023-04-25T08:08:52;101315.41;;;8.37;82.04
58622;BME280;44389;51.578;5.456;2023-04-25T08:11:18;101319.38;;;8.48;80.93
58622;BME280;44389;51.578;5.456;2023-04-25T08:13:43;101327.44;;;8.38;79.33
58622;BME280;44389;51.578;5.456;2023-04-25T08:16:09;101320.38;;;8.52;81.23
58622;BME280;44389;51.578;5.456;2023-04-25T08:18:34;101324.66;;;8.51;80.26
58622;BME280;44389;51.578;5.456;2023-04-25T08:20:59;101326.53;;;8.55;79.34
58622;BME280;44389;51.578;5.456;2023-04-25T08:23:24;101333.44;;;8.56;80.34
58622;BME280;44389;51.578;5.456;2023-04-25T08:25:50;101335.97;;;8.55;81.18
58622;BME280;44389;51.578;5.456;2023-04-25T08:28:15;101335.41;;;8.44;78.72
58622;BME280;44389;51.578;5.456;2023-04-25T08:30:41;101345.19;;;8.51;81.91
58622;BME280;44389;51.578;5.456;2023-04-25T08:33:06;101350.03;;;8.45;78.32
58622;BME280;44389;51.578;5.456;2023-04-25T08:35:33;101347.50;;;8.65;80.46
58622;BME280;44389;51.578;5.456;2023-04-25T08:37:58;101345.78;;;8.83;81.49
58622;BME280;44389;51.578;5.456;2023-04-25T08:40:26;101352.47;;;8.80;77.83
58622;BME280;44389;51.578;5.456;2023-04-25T08:42:54;101349.03;;;8.99;79.93
58622;BME280;44389;51.578;5.456;2023-04-25T08:45:20;101355.38;;;9.07;76.86
58622;BME280;44389;51.578;5.456;2023-04-25T08:47:47;101361.31;;;9.26;75.70
58622;BME280;44389;51.578;5.456;2023-04-25T08:50:13;101360.09;;;9.37;74.29
58622;BME280;44389;51.578;5.456;2023-04-25T08:52:45;101362.19;;;9.46;75.39
58622;BME280;44389;51.578;5.456;2023-04-25T08:55:13;101365.44;;;9.42;72.46
58622;BME280;44389;51.578;5.456;2023-04-25T08:57:42;101373.34;;;9.46;72.28
58622;BME280;44389;51.578;5.456;2023-04-25T09:00:11;101376.78;;;9.66;74.28
58622;BME280;44389;51.578;5.456;2023-04-25T09:02:38;101387.94;;;9.67;76.13
58622;BME280;44389;51.578;5.456;2023-04-25T09:05:05;101396.66;;;9.49;70.65
58622;BME280;44389;51.578;5.456;2023-04-25T09:07:32;101391.94;;;9.60;71.17
58622;BME280;44389;51.578;5.456;2023-04-25T09:09:58;101405.25;;;9.91;75.47
58622;BME280;44389;51.578;5.456;2023-04-25T09:12:27;101405.13;;;9.68;69.82
58622;BME280;44389;51.578;5.456;2023-04-25T09:15:14;101415.06;;;9.59;72.29
58622;BME280;44389;51.578;5.456;2023-04-25T09:17:41;101411.97;;;9.27;70.87
58622;BME280;44389;51.578;5.456;2023-04-25T09:20:11;101423.19;;;9.48;66.84
58622;BME280;44389;51.578;5.456;2023-04-25T09:22:37;101421.47;;;9.68;67.74
58622;BME280;44389;51.578;5.456;2023-04-25T09:25:08;101418.81;;;9.86;70.43
58622;BME280;44389;51.578;5.456;2023-04-25T09:27:33;101417.84;;;10.27;73.56
58622;BME280;44389;51.578;5.456;2023-04-25T09:29:59;101425.22;;;10.84;64.47
58622;BME280;44389;51.578;5.456;2023-04-25T09:32:25;101429.25;;;11.00;63.48
58622;BME280;44389;51.578;5.456;2023-04-25T09:34:53;101432.78;;;10.57;63.63
58622;BME280;44389;51.578;5.456;2023-04-25T09:37:29;101429.97;;;10.50;69.20
58622;BME280;44389;51.578;5.456;2023-04-25T09:39:56;101432.31;;;10.23;69.30
58622;BME280;44389;51.578;5.456;2023-04-25T09:42:23;101429.53;;;9.97;67.82
58622;BME280;44389;51.578;5.456;2023-04-25T09:44:51;101436.38;;;9.56;70.32
58622;BME280;44389;51.578;5.456;2023-04-25T09:47:17;101439.03;;;9.38;75.08
58622;BME280;44389;51.578;5.456;2023-04-25T09:49:43;101440.78;;;9.59;77.75
58622;BME280;44389;51.578;5.456;2023-04-25T09:52:13;101441.34;;;10.13;74.43
58622;BME280;44389;51.578;5.456;2023-04-25T09:54:39;101440.28;;;10.96;73.39
58622;BME280;44389;51.578;5.456;2023-04-25T09:57:19;101432.34;;;11.62;69.79
58622;BME280;44389;51.578;5.456;2023-04-25T09:59:52;101435.72;;;12.37;65.25
58622;BME280;44389;51.578;5.456;2023-04-25T10:02:20;101425.53;;;13.01;57.22
58622;BME280;44389;51.578;5.456;2023-04-25T10:04:47;101432.94;;;13.19;50.75
58622;BME280;44389;51.578;5.456;2023-04-25T10:07:13;101433.16;;;13.57;56.36
58622;BME280;44389;51.578;5.456;2023-04-25T10:09:39;101433.34;;;13.97;47.68
58622;BME280;44389;51.578;5.456;2023-04-25T10:12:06;101434.94;;;14.65;48.64
58622;BME280;44389;51.578;5.456;2023-04-25T10:14:33;101441.50;;;15.30;50.92
58622;BME280;44389;51.578;5.456;2023-04-25T10:16:59;101434.88;;;15.47;43.86
58622;BME280;44389;51.578;5.456;2023-04-25T10:19:26;101445.72;;;15.72;45.64
58622;BME280;44389;51.578;5.456;2023-04-25T10:21:55;101438.56;;;15.59;42.69
58622;BME280;44389;51.578;5.456;2023-04-25T10:24:22;101430.34;;;15.82;41.24
58622;BME280;44389;51.578;5.456;2023-04-25T10:26:48;101431.06;;;16.26;41.67
58622;BME280;44389;51.578;5.456;2023-04-25T10:29:21;101437.56;;;16.00;42.63
58622;BME280;44389;51.578;5.456;2023-04-25T10:31:46;101437.59;;;15.52;37.97
58622;BME280;44389;51.578;5.456;2023-04-25T10:34:16;101427.22;;;15.54;40.75
58622;BME280;44389;51.578;5.456;2023-04-25T10:36:42;101434.34;;;15.66;36.60
58622;BME280;44389;51.578;5.456;2023-04-25T10:39:07;101429.94;;;16.70;38.21
58622;BME280;44389;51.578;5.456;2023-04-25T10:41:47;101442.94;;;17.35;38.29
58622;BME280;44389;51.578;5.456;2023-04-25T10:44:13;101442.81;;;17.24;39.52
58622;BME280;44389;51.578;5.456;2023-04-25T10:46:39;101440.91;;;15.91;37.93
58622;BME280;44389;51.578;5.456;2023-04-25T10:49:04;101457.00;;;14.47;43.47
58622;BME280;44389;51.578;5.456;2023-04-25T10:51:34;101461.94;;;13.07;45.42
58622;BME280;44389;51.578;5.456;2023-04-25T10:54:03;101457.94;;;11.80;46.44
58622;BME280;44389;51.578;5.456;2023-04-25T11:01:40;101482.91;;;8.66;74.26
58622;BME280;44389;51.578;5.456;2023-04-25T11:04:19;101485.34;;;8.28;73.96
58622;BME280;44389;51.578;5.456;2023-04-25T11:09:15;101478.78;;;7.82;77.99
58622;BME280;44389;51.578;5.456;2023-04-25T11:11:41;101478.97;;;7.69;80.28
58622;BME280;44389;51.578;5.456;2023-04-25T11:14:06;101479.22;;;7.57;81.43
58622;BME280;44389;51.578;5.456;2023-04-25T11:16:31;101494.22;;;7.49;82.14
58622;BME280;44389;51.578;5.456;2023-04-25T11:18:57;101488.28;;;7.50;83.45
58622;BME280;44389;51.578;5.456;2023-04-25T11:21:23;101486.59;;;7.51;79.55
58622;BME280;44389;51.578;5.456;2023-04-25T11:23:48;101490.69;;;7.64;81.44
58622;BME280;44389;51.578;5.456;2023-04-25T11:26:14;101490.34;;;7.74;76.57
58622;BME280;44389;51.578;5.456;2023-04-25T11:28:40;101489.94;;;7.83;72.02
58622;BME280;44389;51.578;5.456;2023-04-25T11:31:05;101492.88;;;8.07;72.61
58622;BME280;44389;51.578;5.456;2023-04-25T11:33:31;101494.22;;;8.35;69.67
58622;BME280;44389;51.578;5.456;2023-04-25T11:35:56;101503.25;;;8.79;68.77
58622;BME280;44389;51.578;5.456;2023-04-25T11:38:25;101498.66;;;10.71;69.49
58622;BME280;44389;51.578;5.456;2023-04-25T11:40:52;101492.28;;;12.82;62.70
58622;BME280;44389;51.578;5.456;2023-04-25T11:43:20;101495.25;;;13.88;57.73
58622;BME280;44389;51.578;5.456;2023-04-25T11:45:47;101492.22;;;14.74;53.32
58622;BME280;44389;51.578;5.456;2023-04-25T11:48:13;101489.31;;;15.00;46.36
58622;BME280;44389;51.578;5.456;2023-04-25T11:50:39;101490.09;;;15.37;43.94
58622;BME280;44389;51.578;5.456;2023-04-25T11:53:04;101488.94;;;15.23;42.47
58622;BME280;44389;51.578;5.456;2023-04-25T11:55:31;101485.66;;;15.77;45.38
58622;BME280;44389;51.578;5.456;2023-04-25T11:57:59;101488.34;;;15.80;40.91
58622;BME280;44389;51.578;5.456;2023-04-25T12:00:25;101485.06;;;16.41;40.18
58622;BME280;44389;51.578;5.456;2023-04-25T12:02:53;101491.41;;;16.05;38.65
58622;BME280;44389;51.578;5.456;2023-04-25T12:05:19;101495.88;;;16.14;40.74
58622;BME280;44389;51.578;5.456;2023-04-25T12:07:45;101488.09;;;16.71;40.56
58622;BME280;44389;51.578;5.456;2023-04-25T12:10:13;101506.56;;;15.38;40.32
58622;BME280;44389;51.578;5.456;2023-04-25T12:12:42;101489.25;;;15.83;43.39
58622;BME280;44389;51.578;5.456;2023-04-25T12:15:18;101501.31;;;14.57;43.93
58622;BME280;44389;51.578;5.456;2023-04-25T12:17:52;101498.56;;;14.87;39.39
58622;BME280;44389;51.578;5.456;2023-04-25T12:20:19;101498.09;;;15.05;36.72
58622;BME280;44389;51.578;5.456;2023-04-25T12:22:47;101501.56;;;14.66;33.48
58622;BME280;44389;51.578;5.456;2023-04-25T12:25:40;101502.88;;;15.26;36.08
58622;BME280;44389;51.578;5.456;2023-04-25T12:28:16;101504.94;;;15.86;37.07
58622;BME280;44389;51.578;5.456;2023-04-25T12:30:58;101511.63;;;15.30;39.20
58622;BME280;44389;51.578;5.456;2023-04-25T12:33:29;101517.22;;;15.52;36.20
58622;BME280;44389;51.578;5.456;2023-04-25T12:35:55;101517.03;;;15.87;37.52
58622;BME280;44389;51.578;5.456;2023-04-25T12:38:28;101518.06;;;16.44;36.00
58622;BME280;44389;51.578;5.456;2023-04-25T12:40:58;101516.75;;;16.72;34.77
58622;BME280;44389;51.578;5.456;2023-04-25T12:43:24;101522.16;;;16.29;30.94
58622;BME280;44389;51.578;5.456;2023-04-25T12:45:51;101522.72;;;17.25;36.50
58622;BME280;44389;51.578;5.456;2023-04-25T12:48:17;101515.28;;;17.56;33.88
58622;BME280;44389;51.578;5.456;2023-04-25T12:50:43;101533.19;;;17.31;32.20
58622;BME280;44389;51.578;5.456;2023-04-25T12:53:09;101534.25;;;15.37;39.76
58622;BME280;44389;51.578;5.456;2023-04-25T12:55:34;101534.06;;;13.85;44.17